TAF Text Data
IDs:
Format:
Raw Decoded Include METAR

Data at: 1442 UTC 25 Jan 2020

Region: TOP
KATL 251357Z 2514/2618 29010KT P6SM FEW015 BKN025
  FM251700 29010KT P6SM SCT040
  FM252300 29007KT P6SM SCT200
  FM261500 30007KT P6SM SCT080 BKN200


KBOS 251437Z 2515/2618 07013KT P6SM OVC015
  FM252200 09015G23KT 5SM -RA BR OVC008
  FM252300 10016G29KT 3SM RA BR OVC008 WS020/14040KT
  FM260100 13012G27KT 1SM +RA BR OVC005 WS020/15040KT
  FM260300 15009KT 6SM BR VCSH OVC005
  FM260700 25008KT P6SM BKN020 OVC030
  FM261700 26012G19KT P6SM SCT200


KBWI 251253Z 2513/2618 03004KT 2SM -RA OVC008 WS020/12035KT
  TEMPO 2513/2514 BKN030
  FM251400 VRB03KT 5SM BR OVC008
  FM251600 27006KT P6SM BKN020
  FM251900 27008KT P6SM BKN040
  FM260000 29007KT P6SM SCT080


KCLE 251124Z 2512/2618 22007KT P6SM -SHRA OVC020
  TEMPO 2512/2516 5SM -SHRA BR OVC012
  FM251600 24009KT 6SM BR OVC012
  TEMPO 2516/2520 4SM -SHRA BR OVC008
  FM252000 22009KT 5SM -SHSN OVC012
  FM260100 22010KT 2SM -SHSN OVC008
  FM260600 24012KT 3SM BR OVC008
  FM261700 24013G21KT P6SM OVC015


KCLT 251353Z 2514/2618 24003KT 6SM BR OVC004
  FM251430 26004KT P6SM BKN008
  FM251600 29007KT P6SM SCT040
  FM260100 29005KT P6SM SKC


KCVG 251347Z 2514/2618 25008KT P6SM OVC009
  FM251800 23012G18KT P6SM -RA OVC008
  FM252300 24012KT 4SM -RASN OVC010
  FM260500 24010KT 4SM BR VCSH OVC012
  FM260800 25008KT P6SM OVC012


KDCA 251141Z 2512/2618 05005KT P6SM -RA OVC030
  FM251400 11004KT P6SM BKN010
  FM251700 26006KT P6SM BKN015
  FM251900 29008KT P6SM BKN035
  FM252300 31008KT P6SM SCT070


KDEN 251250Z 2513/2618 27008KT P6SM BKN090 BKN180
  FM251600 VRB05KT P6SM SCT090 SCT200
  FM251800 36012G18KT P6SM FEW090 SCT200
  FM252300 05009KT P6SM FEW090 SCT200
  FM260100 12007KT P6SM SCT220
  FM260300 20010KT P6SM FEW220
  FM261200 24007KT P6SM BKN220


KDFW 251123Z 2512/2618 14005KT P6SM FEW300
  FM251700 17013G23KT P6SM SCT060 BKN300
  FM260300 17012KT P6SM VCSH BKN040
  FM260900 21008KT P6SM BKN025
  FM261500 30010KT 5SM BR BKN015


KDTW 251420Z 2514/2618 22005KT 5SM -RA BR OVC008
  FM251600 22006KT 5SM BR OVC009
  TEMPO 2516/2520 6SM OVC012
  FM252200 22006KT 6SM -SHSN BR SCT009 OVC015
  TEMPO 2600/2604 2SM -SHSN BR BKN009 OVC015
  FM260600 24008KT P6SM OVC008
  FM261400 25012KT P6SM OVC015


KEWR 251223Z 2512/2618 06012KT P6SM BKN009
  FM251400 06014G20KT P6SM OVC009
  TEMPO 2514/2517 4SM -RA BR OVC010
  FM251700 08015G22KT 3SM RA BR OVC008 WS020/12050KT
  TEMPO 2518/2522 1SM +RA BR BKN005
  FM252200 14013KT 3SM -RA BR OVC008
  FM260000 23010KT P6SM -RA OVC010
  FM260300 27009KT P6SM BKN050


KFLL 251143Z 2512/2618 VRB05KT P6SM FEW025 SCT050 SCT250
  FM251500 33010KT P6SM FEW025 SCT250
  FM252300 VRB03KT P6SM SKC
  FM261400 33005KT P6SM SKC


KIAD 251251Z 2513/2618 07004KT P6SM -RA OVC030
  TEMPO 2513/2514 BKN009
  FM251400 28004KT P6SM BKN008
  FM251600 29005KT P6SM BKN015
  FM251800 30009KT P6SM BKN040
  FM252300 30007KT P6SM SCT090


KIAH 251132Z 2512/2618 VRB04KT P6SM SCT090 SCT250
  FM252200 14008KT P6SM OVC120
  FM260500 13006KT P6SM VCSH OVC050
  FM260700 13006KT P6SM -SHRA OVC030
  FM260900 13005KT 6SM -SHRA BR OVC010
  FM261500 VRB03KT P6SM VCSH OVC004


TAF COR KJFK 251141Z 2512/2618 06017KT P6SM BKN009
  FM251400 09018G24KT P6SM OVC009
  TEMPO 2514/2517 4SM -RA BR OVC009
  FM251700 10018G26KT 3SM RA BR OVC008 WS020/12050KT
  TEMPO 2518/2522 1SM +RA BR BKN005
  FM252200 14015KT 3SM -RA BR OVC008
  FM260000 23011KT P6SM -RA OVC010
  FM260300 27010KT P6SM BKN050


KLAS 251430Z 2515/2618 VRB05KT P6SM BKN250
  FM251900 05005KT P6SM FEW250
  FM260300 22006KT P6SM BKN250


KLAX 251130Z 2512/2618 VRB03KT 1/2SM FG VV002
  TEMPO 2512/2513 1/4SM FG VV001
  FM251400 11003KT 1 1/2SM BR VCFG OVC003
  FM251600 12004KT 3SM BR BKN005
  FM251800 25005KT 5SM HZ SCT006 BKN200
  FM252000 26010KT P6SM BKN200
  FM260400 VRB03KT 1 1/2SM BR VCFG BKN003
  FM260800 11003KT 6SM BR OVC007
  FM261200 12004KT P6SM OVC011


KLGA 251141Z 2512/2618 07014KT P6SM BKN009
  FM251400 08017G23KT P6SM OVC009
  TEMPO 2514/2517 4SM -RA BR OVC009
  FM251700 09017G25KT 3SM RA BR OVC008 WS020/12050KT
  TEMPO 2518/2522 1SM +RA BR BKN005
  FM252200 14014KT 3SM -RA BR OVC008
  FM260000 23011KT P6SM -RA OVC010
  FM260300 27009KT P6SM BKN050


KMCO 251121Z 2512/2618 31011KT P6SM FEW020 BKN250
  FM251400 34010KT P6SM SKC
  FM260000 30005KT P6SM SKC
  FM261200 34006KT P6SM SKC


KMDW 251439Z 2515/2618 26008KT 4SM -SN BR OVC008
  TEMPO 2515/2518 1 1/2SM -SN BR OVC006
  FM252100 27009KT 5SM -DZSN OVC007
  FM260400 27009KT P6SM BKN007 OVC012


KMEM 251320Z 2513/2618 29005KT P6SM SCT025
  FM251500 28005KT P6SM SCT060
  FM252000 25006KT P6SM SCT150
  FM260400 19004KT P6SM BKN100
  FM261200 VRB04KT P6SM VCSH OVC050


KMIA 251143Z 2512/2618 VRB04KT P6SM FEW025 SCT050 SCT250
  FM251500 33008KT P6SM FEW025 SCT250
  FM252300 VRB02KT P6SM SKC
  FM261500 33005KT P6SM SKC


KMSP 251126Z 2512/2618 33009KT P6SM OVC012
  FM252200 29006KT P6SM OVC020
  FM261000 23004KT P6SM OVC011


KORD 251436Z 2515/2618 26008KT 4SM -SN BR OVC008
  TEMPO 2515/2518 1 1/2SM -SN BR OVC006
  FM252100 27009KT 5SM -DZSN OVC007
  FM260400 27009KT P6SM BKN007 OVC012


KPDX 251352Z 2514/2612 15007KT 6SM -SHRA BR SCT006 OVC014
  TEMPO 2514/2516 BKN006
  FM251700 15007KT P6SM -SHRA BKN022 OVC040
  FM251900 17005KT P6SM SCT025 BKN080
  FM260000 10007KT P6SM -RA OVC060
  FM260700 10011G22KT P6SM -RA OVC040


KPHL 251403Z 2514/2618 07014G22KT 6SM -RA BR OVC007 WS020/12045KT
  TEMPO 2514/2517 2SM RA OVC003
  FM251700 VRB04KT 3SM -RA BR OVC008
  FM252000 25007KT P6SM BKN015
  FM252300 28008KT P6SM BKN040
  FM260400 29007KT P6SM BKN100


KPHX 251137Z 2512/2618 10006KT P6SM SKC
  FM252100 27004KT P6SM SCT250
  FM260500 11004KT P6SM SCT250


KPIT 251351Z 2514/2618 24009KT 4SM -RA BR SCT006 OVC015
  FM251500 26009KT P6SM SCT008 OVC015
  FM251700 24008G16KT P6SM VCSH OVC015
  FM252300 24005KT P6SM OVC025
  FM260300 23005KT 6SM -SHRASN OVC008


KSAN 251434Z 2515/2618 VRB03KT 3SM BR VCFG OVC005
  FM251600 VRB04KT 5SM BR BKN006
  FM251730 26007KT P6SM FEW006
  FM260100 VRB04KT 4SM BR VCFG BKN005
  FM260600 VRB03KT 2SM BR VCFG OVC004
  FM261100 VRB03KT 5SM BR VCFG OVC006


KSEA 251139Z 2512/2618 15006KT P6SM -RA OVC045
  FM251700 18010KT P6SM SCT025 OVC045
  TEMPO 2517/2520 -SHRA BKN025 OVC045
  FM252200 14008KT P6SM SCT035 BKN060
  FM260100 09006KT P6SM SCT060 BKN150
  FM260600 08008KT P6SM -RA OVC050
  FM261400 18015G25KT P6SM -SHRA SCT020 BKN030 BKN050


KSFO 251137Z 2512/2618 VRB03KT 3SM BR VCSH FEW003 BKN006 OVC025
  TEMPO 2512/2516 1SM BR OVC004
  FM251900 07004KT 4SM BR SCT007 BKN012 BKN025
  FM252200 34005KT 6SM HZ FEW009 SCT025 BKN040
  FM260200 20007KT 6SM BR VCSH SCT008 BKN020 BKN030
  FM260900 20008KT 5SM -SHRA BR BKN007 BKN015 OVC025
  FM261600 23006KT 6SM BR VCSH FEW008 SCT020 BKN030


KSLC 251441Z 2515/2618 00000KT 1SM BR OVC005
  TEMPO 2515/2517 3SM BR FEW005 BKN010 OVC025
  FM251700 17005KT 6SM HZ BKN020 OVC035
  FM252100 30006KT P6SM SCT040 BKN120
  FM260300 15006KT P6SM BKN040


KSTL 251120Z 2512/2618 28013KT P6SM OVC015
  FM260100 VRB04KT P6SM BKN025
  FM260500 VRB04KT P6SM SCT024 BKN100
  FM261100 00000KT P6SM SCT009 OVC025


KTPA 251135Z 2512/2618 35009KT P6SM SKC
  FM252000 31011KT P6SM SKC
  FM260400 36007KT P6SM FEW250
  FM261400 03006KT P6SM FEW250